Tangaroa — ZMFR — position and weather

sailwx.info

Track history (hours):
 
Tides and Currents Weather Stations Pressure Air Temp Water Temp Dewpoint Dewpoint Depression Visibility Wind Speed Wind Dir Waves Ship Positions

Oceanographic research ship Tangaroa (New Zealand)

Detailed information on ship capabilities available from University of Delaware's Ocean Information Center.

Last reported at 2020-Sep-20 20:00 UTC. Time now 2020-Sep-20 21:29 UTC.
Position S 41°18' E 174°48'.

Length 70 m; beam 13.8 m.

Type: Ship. MMSI: 512000058.

Wind at 11 knots

Barometer 1027.7 mb
Air temperature 13.1 ° C
Dewpoint 9.4 ° C

Date/timePositionNaut miles runAvg speedWind from/ knotsBaromVisibWave heightAir tempDewpointWater temp
2020-Sep-20 20:00S 41°18' E 174°48'0 0.0 1027.7 13.1 9.4
2020-Sep-20 19:00S 41°18' E 174°48'214.7 1028.2 12.7 9.2
2020-Sep-20 18:51S 41°16' E 174°47'2 2.5
2020-Sep-20 18:00S 41°18' E 174°48'2 7.2 1027.9 12.3 9.3
2020-Sep-20 17:42S 41°16' E 174°47'0 0.0
2020-Sep-20 17:30S 41°16' E 174°47'0 0.0
2020-Sep-20 17:00S 41°16' E 174°47'2451.0
2020-Sep-20 17:00S 41°18' E 174°48'2 4.3 1027.9 12.1 8.9
2020-Sep-20 16:30S 41°16' E 174°47'0 0.0
2020-Sep-20 16:00S 41°16' E 174°47'2451.0
2020-Sep-20 16:00S 41°18' E 174°48'0 0.0 1027.8 12.0 8.7
2020-Sep-20 15:00S 41°18' E 174°48'2 4.3 1028.0 11.9 8.6
2020-Sep-20 14:30S 41°16' E 174°47'2 4.2
2020-Sep-20 14:00S 41°18' E 174°48'0 0.0 1028.3 11.6 8.0
2020-Sep-20 13:00S 41°18' E 174°48'2 4.3 1028.5 11.1 7.8
2020-Sep-20 12:30S 41°16' E 174°47'0 0.0
2020-Sep-20 12:00S 41°16' E 174°47'2511.1
2020-Sep-20 12:00S 41°18' E 174°48'2 4.3 1028.6 10.1 6.8
2020-Sep-20 11:30S 41°16' E 174°47'2 4.2
2020-Sep-20 11:00S 41°18' E 174°48'2 3.6 1028.6 10.1 6.6
2020-Sep-20 10:24S 41°16' E 174°47'2 5.3
2020-Sep-20 10:00S 41°18' E 174°48'0 0.0 1028.5 10.5 7.1
2020-Sep-20 09:00S 41°18' E 174°48'2 3.6 1028.3 11.2 6.0
2020-Sep-20 08:24S 41°16' E 174°47'2 5.3
2020-Sep-20 08:00S 41°18' E 174°48'0 0.0 1027.8 12.3 4.4
2020-Sep-20 07:00S 41°18' E 174°48'0 0.0 1027.3 12.8 3.8
2020-Sep-20 06:00S 41°18' E 174°48'214.5 1026.9 13.3 3.2
2020-Sep-20 05:51S 41°16' E 174°47'2 2.5
2020-Sep-20 05:00S 41°18' E 174°48'0 0.0 1026.8 14.5 2.7
2020-Sep-20 04:00S 41°18' E 174°48'1312.8 360 / 181026.7 13.8 4.9
2020-Sep-20 03:00S 41°30' E 174°54'4 4.5 1026.6 14.5 6.0
2020-Sep-20 02:00S 41°30' E 175°00'7 7.5 030 / 111027.1 14.5 7.0
2020-Sep-20 01:00S 41°36' E 175°06'1212.1 080 / 101027.9 14.0 6.3
2020-Sep-20 00:00S 41°39' E 175°21'3237.5
2020-Sep-20 00:00S 41°42' E 175°24'1110.8 090 / 61028.9 13.1 6.1
2020-Sep-19 23:00S 41°36' E 175°36'1110.8 1029.7 12.3 5.6
2020-Sep-19 22:00S 41°30' E 175°48'9 9.0 1029.9 11.7 5.9
2020-Sep-19 21:00S 41°30' E 176°00'1110.8 280 / 71029.9 11.2 6.4
2020-Sep-19 20:00S 41°24' E 176°12'9 9.0 200 / 91029.6 11.1 6.2
2020-Sep-19 19:00S 41°24' E 176°24'1110.8 190 / 81028.9 11.1 5.0
2020-Sep-19 18:00S 41°18' E 176°36'9 9.0 210 / 121028.2 11.0 5.7
2020-Sep-19 17:00S 41°18' E 176°48'1110.8 220 / 151028.0 11.0 4.7
2020-Sep-19 16:00S 41°12' E 177°00'9 9.0 210 / 141027.5 11.0 5.2
2020-Sep-19 15:00S 41°12' E 177°12'1110.8 190 / 131027.3 10.9 5.4
2020-Sep-19 14:00S 41°06' E 177°24'1110.9 200 / 171027.2 11.1 5.7
2020-Sep-19 13:00S 41°00' E 177°36'9 9.1 210 / 181026.9 11.2 6.0
2020-Sep-19 12:00S 41°00' E 177°48'1110.9 200 / 191026.4 11.3 5.4
2020-Sep-19 11:00S 40°54' E 178°00'9 9.1 210 / 201026.0 11.5 6.1
2020-Sep-19 10:00S 40°54' E 178°12'1110.9 210 / 211025.4 11.6 5.8
2020-Sep-19 09:00S 40°48' E 178°24'9 9.1 210 / 201024.7 11.8 6.3
2020-Sep-19 08:00S 40°48' E 178°36'1110.9 200 / 221023.9 11.9 6.5
2020-Sep-19 07:00S 40°42' E 178°48'5 4.5 1023.4 12.1 5.7
2020-Sep-19 06:00S 40°42' E 178°54'8 7.5 1022.2 12.3 6.5
2020-Sep-19 05:00S 40°36' E 179°00'5 4.6 1021.3 12.5 6.1
2020-Sep-19 04:00S 40°36' E 179°06'0 0.0 1021.1 12.8 6.7
2020-Sep-19 03:00S 40°36' E 179°06'0 0.0 1020.7 12.9 6.4
2020-Sep-19 02:00S 40°36' E 179°06'0 0.0 1020.5 13.2 6.4
2020-Sep-19 01:00S 40°36' E 179°06'0 0.0 1020.2 13.3 4.6
2020-Sep-19 00:00S 40°36' E 179°06'6 6.0 1020.3 13.8 5.9
2020-Sep-18 23:00S 40°30' E 179°06'6 6.0 200 / 151019.8 14.1 7.4
2020-Sep-18 22:00S 40°36' E 179°06'0 0.0 1019.2 13.7 8.4
2020-Sep-18 21:00S 40°36' E 179°06'0 0.0 1018.5 13.3 7.4
2020-Sep-18 20:00S 40°36' E 179°06'0 0.0 1018.0 13.1 7.8
2020-Sep-18 19:00S 40°36' E 179°06'0 0.0 1017.2 13.1 8.1
2020-Sep-18 18:00S 40°36' E 179°06'5 4.6 1016.1 12.5 8.3
2020-Sep-18 17:00S 40°36' E 179°12'8 7.5 1015.7 12.3 7.9
2020-Sep-18 16:00S 40°30' E 179°18'6 6.0 270 / 211014.7 12.1 6.9
2020-Sep-18 15:00S 40°24' E 179°18'8 7.5 270 / 181014.6 11.8 7.0
2020-Sep-18 14:00S 40°30' E 179°12'8 7.5 270 / 17 gusting 321014.9 11.5 6.7
2020-Sep-18 13:00S 40°24' E 179°06'9 9.1 260 / 221015.1 11.2 5.2
2020-Sep-18 12:00S 40°24' E 179°18'1212.0 250 / 241014.6 10.7 4.9
2020-Sep-18 11:00S 40°36' E 179°18'5 4.6 230 / 241014.4 10.9 5.0
2020-Sep-18 10:00S 40°36' E 179°12'6 6.0 240 / 281013.5 10.7 4.3
2020-Sep-18 09:00S 40°30' E 179°12'0 0.0 1013.1 10.6 3.8
2020-Sep-18 08:00S 40°30' E 179°12'6 6.0 1013.1 10.6 3.9
2020-Sep-18 07:00S 40°36' E 179°12'8 7.5 1012.1 10.3 3.5
2020-Sep-18 06:00S 40°42' E 179°06'5 4.5 1011.3 9.8 5.0
2020-Sep-18 05:00S 40°42' E 179°00'6 6.0 1010.8 9.5 6.1
2020-Sep-18 04:00S 40°48' E 179°00'0 0.0 1009.5 9.4 6.7
2020-Sep-18 03:00S 40°48' E 179°00'8 7.5 1008.6 9.3 7.2
2020-Sep-18 02:00S 40°42' E 179°06'0 0.0 1008.3 9.7 7.5
2020-Sep-18 01:00S 40°42' E 179°06'6 6.0 1007.7 12.010.0
2020-Sep-18 00:00S 40°36' E 179°06'0 0.0 1007.6 14.310.4
2020-Sep-17 23:00S 40°36' E 179°06'0 0.0 1007.5 15.2 9.3
2020-Sep-17 22:00S 40°36' E 179°06'6 6.0 1008.2 15.1 9.3
2020-Sep-17 21:00S 40°30' E 179°06'1212.0 320 / 321009.3 15.0 9.2
2020-Sep-17 20:00S 40°18' E 179°06'8 7.5 320 / 281010.4 14.9 9.5
2020-Sep-17 19:00S 40°12' E 179°00'1212.0 310 / 321010.7 15.1 8.9
2020-Sep-17 18:00S 40°00' E 179°00'1212.0 310 / 301011.6 15.0 9.1
2020-Sep-17 17:00S 39°48' E 179°00'1212.0 300 / 291013.0 15.2 8.7
2020-Sep-17 16:00S 39°36' E 179°00'6 6.0 310 / 271013.7 15.1 8.7
2020-Sep-17 15:00S 39°30' E 179°00'1212.0 300 / 291014.3 14.9 8.9
2020-Sep-17 14:00S 39°18' E 179°00'1312.9 310 / 241016.0 14.8 8.8
2020-Sep-17 13:00S 39°06' E 178°54'1212.0 300 / 261017.2 14.9 8.5
2020-Sep-17 12:00S 38°54' E 178°54'1212.0 300 / 211018.1 15.3 8.7
2020-Sep-17 11:00S 38°42' E 178°54'6 6.0 300 / 171019.1 15.4 9.1
2020-Sep-17 10:00S 38°36' E 178°54'1312.9 310 / 161019.5 15.511.1
2020-Sep-17 09:00S 38°24' E 178°48'1212.0 310 / 191019.9 16.1 9.4
2020-Sep-17 08:00S 38°12' E 178°48'1212.0 350 / 161020.4 15.410.2
2020-Sep-17 07:00S 38°00' E 178°48'1212.0 320 / 221020.3 15.610.4
2020-Sep-17 06:00S 37°48' E 178°48'6 6.0 310 / 251020.7 15.011.7
2020-Sep-17 05:00S 37°42' E 178°48'1212.0 300 / 281021.6 14.911.0
2020-Sep-17 04:00S 37°30' E 178°48'1312.9 280 / 271022.2 15.611.0
2020-Sep-17 03:00S 37°18' E 178°42'6 6.0 290 / 351022.1 15.610.2
2020-Sep-17 02:00S 37°12' E 178°42'1212.0 280 / 291023.7 15.6 9.4
2020-Sep-17 01:00S 37°00' E 178°42'6 6.0 270 / 281025.0 15.2 8.4
2020-Sep-17 00:00S 36°54' E 178°42'1212.0 260 / 301026.0 15.2 9.5
2020-Sep-16 23:00S 36°42' E 178°42'19 9.3 260 / 291026.8 15.0 9.5
2020-Sep-16 21:00S 36°24' E 178°36'1212.0 270 / 231027.5 14.9 9.2
2020-Sep-16 20:00S 36°12' E 178°36'6 6.0 270 / 221027.8 14.4 8.5
2020-Sep-16 19:00S 36°06' E 178°36'0 0.0 1027.7 14.1 8.1
2020-Sep-16 18:00S 36°06' E 178°36'5 4.8 1027.3 13.9 8.8
2020-Sep-16 17:00S 36°06' E 178°30'1111.4 250 / 171027.2 13.8 8.5
2020-Sep-16 16:00S 36°00' E 178°18'6 6.0 250 / 191027.1 13.8 8.3
2020-Sep-16 15:00S 35°54' E 178°18'6 6.0 1027.0 14.0 8.6
2020-Sep-16 14:00S 35°48' E 178°18'6 6.0 1027.4 14.4 8.7
2020-Sep-16 13:00S 35°42' E 178°18'6 6.0 240 / 251027.0 14.6 8.3
2020-Sep-16 12:00S 35°36' E 178°18'0 0.0 1027.1 14.9 9.5
2020-Sep-16 11:00S 35°36' E 178°18'6 6.0 240 / 251026.7 15.2 9.5
2020-Sep-16 10:00S 35°42' E 178°18'6 6.0 240 / 221026.8 15.4 8.3
2020-Sep-16 09:00S 35°48' E 178°18'6 6.0 1026.4 15.5 9.3
2020-Sep-16 08:00S 35°54' E 178°18'6 6.0 1025.6 15.710.0
2020-Sep-16 07:00S 36°00' E 178°18'5 4.9 1024.9 15.810.6
2020-Sep-16 06:00S 36°00' E 178°24'10 9.7 1024.3 15.610.3
2020-Sep-16 05:00S 36°00' E 178°36'0 0.0 1023.0 15.9 9.9
2020-Sep-16 04:00S 36°00' E 178°36'6 6.0 1022.8 15.710.6
2020-Sep-16 03:00S 36°06' E 178°36'6 6.0 1023.1 15.7 9.1
2020-Sep-16 02:00S 36°12' E 178°36'8 7.7 1022.7 15.7 8.1
2020-Sep-16 01:00S 36°18' E 178°42'6 6.0 1022.4 15.9 8.8
2020-Sep-16 00:00S 36°12' E 178°42'0 0.0 1022.5 16.2 7.4
2020-Sep-15 23:00S 36°12' E 178°42'6 6.0 1021.7 16.3 7.7
2020-Sep-15 22:00S 36°06' E 178°42'5 4.8 1021.5 16.2 9.7
2020-Sep-15 21:00S 36°06' E 178°36'6 6.0 1022.1 15.811.0
2020-Sep-15 20:00S 36°00' E 178°36'0 0.0 1020.6 15.910.7
2020-Sep-15 19:00S 36°00' E 178°36'6 6.0 1018.8 15.410.3
2020-Sep-15 18:00S 35°54' E 178°36'6 6.0 1018.0 15.110.2
2020-Sep-15 17:00S 36°00' E 178°36'8 7.7 1017.7 15.310.3
2020-Sep-15 16:00S 36°06' E 178°42'0 0.0 1017.6 15.2 9.8
2020-Sep-15 15:00S 36°06' E 178°42'6 6.0 1017.2 15.310.0
2020-Sep-15 14:00S 36°12' E 178°42'8 7.7 1017.2 15.310.1
2020-Sep-15 13:00S 36°18' E 178°36'6 6.0 1017.6 15.2 9.5
2020-Sep-15 12:00S 36°24' E 178°36'6 6.0 1017.1 15.410.7
2020-Sep-15 11:00S 36°18' E 178°36'6 6.0 1017.4 15.611.2
2020-Sep-15 10:00S 36°12' E 178°36'6 6.0 1018.0 15.711.7
2020-Sep-15 09:00S 36°06' E 178°36'5 4.8 1017.9 15.811.5
2020-Sep-15 08:00S 36°06' E 178°42'5 4.8 280 / 301017.7 15.513.1
2020-Sep-15 07:00S 36°06' E 178°48'1111.4 290 / 341017.2 15.813.2
2020-Sep-15 06:00S 36°00' E 179°00'5 4.9 290 / 321016.7 15.612.8
2020-Sep-15 05:00S 36°00' E 179°06'8 7.7 290 / 351016.5 15.812.6
2020-Sep-15 04:00S 35°54' E 179°12'8 7.7 290 / 351016.4 15.912.2
2020-Sep-15 03:00S 35°48' E 179°18'1111.4 280 / 331017.2 15.912.2
2020-Sep-15 02:00S 35°42' E 179°30'1313.0 280 / 331017.8 16.111.9
2020-Sep-15 01:00S 35°30' E 179°36'8 7.7 280 / 281018.7 16.212.1
2020-Sep-15 00:00S 35°24' E 179°42'8 7.7 280 / 261019.6 15.911.9
2020-Sep-14 23:00S 35°18' E 179°48'8 7.7 1020.2 15.610.9
2020-Sep-14 22:00S 35°12' E 179°54'2110.3 280 / 271020.6 15.610.3
2020-Sep-14 20:00S 34°54' W 179°54'8 7.8 270 / 281021.1 15.5 6.7
2020-Sep-14 19:00S 34°48' W 179°48'1212.0 260 / 281021.2 15.2 7.3
2020-Sep-14 18:00S 34°36' W 179°48'8 7.8 260 / 291020.9 15.0 6.8
2020-Sep-14 17:00S 34°30' W 179°42'8 7.8 270 / 201021.3 14.9 8.7
2020-Sep-14 16:00S 34°24' W 179°36'1313.0 280 / 241021.1 14.9 8.1
2020-Sep-14 15:00S 34°12' W 179°30'8 7.8 270 / 211021.7 14.6 7.7
2020-Sep-14 14:00S 34°06' W 179°24'8 7.8 270 / 241022.2 14.9 8.3
2020-Sep-14 13:00S 34°00' W 179°18'1211.6 260 / 241022.9 14.9 7.5
2020-Sep-14 12:00S 33°54' W 179°06'8 7.8 270 / 181023.5 14.4 9.6
2020-Sep-14 11:00S 33°48' W 179°00'1313.0 250 / 181023.9 14.8 7.5
2020-Sep-14 10:00S 33°36' W 178°54'8 7.8 250 / 201024.3 14.9 6.7
2020-Sep-14 09:00S 33°30' W 178°48'1211.7 240 / 161024.3 15.0 6.1
2020-Sep-14 08:00S 33°24' W 178°36'8 7.8 240 / 151024.2 15.1 6.9
2020-Sep-14 07:00S 33°18' W 178°30'1313.0 260 / 171024.2 15.1 6.8
2020-Sep-14 06:00S 33°06' W 178°24'8 7.8 250 / 191023.9 15.0 7.4
2020-Sep-14 05:00S 33°00' W 178°18'1211.7 240 / 161023.5 15.1 9.4
2020-Sep-14 04:00S 32°54' W 178°06'1313.0 240 / 131023.7 15.2 8.7
2020-Sep-14 03:00S 32°42' W 178°00'8 7.8 270 / 141024.0 15.4 8.3
2020-Sep-14 02:00S 32°36' W 177°54'1211.8 1024.3 15.3 7.7
2020-Sep-14 01:00S 32°30' W 177°42'1313.0 260 / 121024.9 15.5 7.5
2020-Sep-14 00:00S 32°18' W 177°36'8 7.9 270 / 111025.8 15.3 8.1
2020-Sep-13 23:00S 32°12' W 177°30'1211.8 250 / 101026.6 15.7 6.0
2020-Sep-13 22:00S 32°06' W 177°18'1313.0 1027.4 15.2 6.2
2020-Sep-13 21:00S 31°54' W 177°12'8 7.9 1027.7 14.6 4.9
2020-Sep-13 20:00S 31°48' W 177°06'8 7.9 160 / 71027.7 14.1 5.7
2020-Sep-13 19:00S 31°42' W 177°00'1211.8 150 / 101026.7 13.9 6.0
2020-Sep-13 18:00S 31°36' W 176°48'1313.0 160 / 141026.3 13.8 5.1
2020-Sep-13 17:00S 31°24' W 176°42'8 7.9 160 / 161025.7 13.9 5.3
2020-Sep-13 16:00S 31°18' W 176°36'8 7.9 180 / 151025.4 14.3 6.6
2020-Sep-13 15:00S 31°12' W 176°30'1615.8 160 / 171025.5 14.3 6.2
2020-Sep-13 14:00S 31°00' W 176°18'8 7.9 150 / 181025.6 14.3 5.3
2020-Sep-13 13:00S 30°54' W 176°12'8 7.9 1025.6 14.6 5.8
2020-Sep-13 12:00S 30°48' W 176°06'8 7.9 170 / 151025.9 14.7 6.6
2020-Sep-13 11:00S 30°42' W 176°00'8 7.9 150 / 201026.0 14.3 8.5
2020-Sep-13 10:00S 30°36' W 175°54'1615.8 160 / 201025.9 14.9 6.6
2020-Sep-13 09:00S 30°24' W 175°42'8 7.9 150 / 231026.1 15.2 7.3
2020-Sep-13 08:00S 30°18' W 175°36'8 7.9 150 / 261024.7 15.2 6.1
2020-Sep-13 07:00S 30°12' W 175°30'8 7.9 160 / 271023.8 15.2 4.8
2020-Sep-13 06:00S 30°06' W 175°24'8 7.9 160 / 301022.7 15.1 7.9
2020-Sep-13 05:00S 30°00' W 175°18'8 7.9 170 / 271022.0 15.1 8.5
2020-Sep-13 04:00S 29°54' W 175°12'8 7.9 160 / 281021.6 15.1 8.7
2020-Sep-13 03:00S 29°48' W 175°06'8 7.9 190 / 261021.9 14.9 8.6
2020-Sep-13 02:00S 29°42' W 175°00'8 7.9 1021.6 15.7 9.1
2020-Sep-13 01:00S 29°36' W 174°54'8 8.0 180 / 311021.2 15.7 9.1
2020-Sep-13 00:00S 29°30' W 174°48'8 8.0 190 / 331021.2 15.7 8.3
2020-Sep-12 23:00S 29°24' W 174°42'8 8.0 190 / 311021.3 16.2 7.5
2020-Sep-12 22:00S 29°18' W 174°48'6 6.0 180 / 301021.1 16.0 8.2
2020-Sep-12 21:00S 29°12' W 174°48'6 6.0 190 / 321020.5 16.3 8.1
2020-Sep-12 20:00S 29°06' W 174°48'6 6.0 190 / 291020.3 15.7 8.2
2020-Sep-12 19:00S 29°00' W 174°48'6 6.0 200 / 281019.9 15.4 7.3
2020-Sep-12 18:00S 28°54' W 174°48'6 6.0 1018.9 15.3 6.9
2020-Sep-12 17:00S 28°48' W 174°48'6 6.0 1018.1 15.3 6.2
2020-Sep-12 16:00S 28°42' W 174°48'8 8.0 1017.5 15.5 7.2
2020-Sep-12 15:00S 28°36' W 174°42'6 6.0 1016.7 16.0 8.5
2020-Sep-12 14:00S 28°30' W 174°42'6 6.0 1016.7 16.0 9.0
2020-Sep-12 13:00S 28°24' W 174°42'6 6.0 1017.2 16.011.5
2020-Sep-12 12:00S 28°18' W 174°42'8 8.0 210 / 281017.2 16.610.7
2020-Sep-12 11:00S 28°12' W 174°36'1212.0 220 / 311017.1 16.9 9.5
2020-Sep-12 10:00S 28°00' W 174°36'8 8.0 210 / 311017.3 17.3 9.2
2020-Sep-12 09:00S 27°54' W 174°30'1212.0 210 / 301017.3 17.210.1
2020-Sep-12 08:00S 27°42' W 174°30'6 6.0 220 / 261017.2 17.5 8.8
2020-Sep-12 07:00S 27°36' W 174°30'1313.1 220 / 291016.3 18.0 9.2
2020-Sep-12 06:00S 27°24' W 174°24'1212.0 220 / 271015.7 18.2 9.4
2020-Sep-12 05:00S 27°12' W 174°24'8 8.0 220 / 251014.8 18.412.6
2020-Sep-12 04:00S 27°06' W 174°18'1212.0 230 / 321014.4 17.414.9
2020-Sep-12 03:00S 26°54' W 174°18'1313.1 240 / 191014.5 19.511.1
2020-Sep-12 02:00S 26°42' W 174°12'6 6.0 230 / 191014.6 19.911.5
2020-Sep-12 01:00S 26°36' W 174°12'1212.0 220 / 141015.3 19.811.1
2020-Sep-12 00:00S 26°24' W 174°12'1313.2 200 / 131015.8 19.711.5
2020-Sep-11 23:00S 26°12' W 174°06'6 6.0 230 / 211016.2 20.010.4
2020-Sep-11 22:00S 26°06' W 174°06'1313.2 210 / 171016.9 20.012.7
2020-Sep-11 21:00S 25°54' W 174°00'1212.0 210 / 181016.9 20.110.1
2020-Sep-11 20:00S 25°42' W 174°00'6 6.0 210 / 181016.4 20.313.3
2020-Sep-11 19:00S 25°36' W 174°00'1313.2 200 / 181015.6 19.714.3
2020-Sep-11 18:00S 25°24' W 173°54'1212.0 200 / 211015.0 19.316.1
2020-Sep-11 17:00S 25°12' W 173°54'1313.2 190 / 191014.4 20.115.6
2020-Sep-11 16:00S 25°00' W 173°48'1212.0 190 / 201013.7 20.416.7
2020-Sep-11 15:00S 24°48' W 173°48'8 8.1 180 / 191013.2 20.317.6
2020-Sep-11 14:00S 24°42' W 173°42'1212.0 170 / 201013.2 19.618.3
2020-Sep-11 13:00S 24°30' W 173°42'1313.2 300 / 61013.4 21.318.6
2020-Sep-11 12:00S 24°18' W 173°36'1212.0 1013.9 21.218.3
2020-Sep-11 11:00S 24°06' W 173°36'1313.2 1014.5 21.018.9
2020-Sep-11 10:00S 23°54' W 173°30'1212.0 1014.2 21.218.4
2020-Sep-11 09:00S 23°42' W 173°30'1212.0 1014.3 21.018.4
2020-Sep-11 08:00S 23°30' W 173°30'8 8.1 230 / 71014.1 22.018.2
2020-Sep-11 07:00S 23°24' W 173°24'6 6.0 1013.2 21.918.3
2020-Sep-11 06:00S 23°18' W 173°24'0 0.0 1012.5 21.818.8
2020-Sep-11 05:00S 23°18' W 173°24'0 0.0 1012.0 22.618.6
2020-Sep-11 04:00S 23°18' W 173°24'6 5.5 1011.7 23.218.5
2020-Sep-11 03:00S 23°18' W 173°30'6 5.5 1011.2 24.118.7
2020-Sep-11 02:00S 23°18' W 173°24'6 5.5 280 / 71010.8 22.518.7
2020-Sep-11 01:00S 23°18' W 173°18'6 5.5 1010.8 23.718.5
2020-Sep-11 00:00S 23°18' W 173°24'0 0.0 1011.1 23.518.6
2020-Sep-10 23:00S 23°18' W 173°24'0 0.0 1011.3 23.418.4
2020-Sep-10 22:00S 23°18' W 173°24'6 6.0 1011.6 23.018.6
2020-Sep-10 21:00S 23°24' W 173°24'6 6.0 1011.4 22.018.5
2020-Sep-10 20:00S 23°18' W 173°24'   1010.8 21.319.2
Track history (hours):
 
Tides and Currents Weather Stations Pressure Air Temp Water Temp Dewpoint Dewpoint Depression Visibility Wind Speed Wind Dir Waves Ship Positions

Oceanographic research ship Tangaroa (New Zealand)

Detailed information on ship capabilities available from University of Delaware's Ocean Information Center.

Last reported at 2020-Sep-20 20:00 UTC. Time now 2020-Sep-20 21:29 UTC.
Position S 41°18' E 174°48'.

Length 70 m; beam 13.8 m.

Type: Ship. MMSI: 512000058.

Wind at 11 knots

Barometer 1027.7 mb
Air temperature 13.1 ° C
Dewpoint 9.4 ° C

Date/timePositionNaut miles runAvg speedWind from/ knotsBaromVisibWave heightAir tempDewpointWater temp
2020-Sep-20 20:00S 41°18' E 174°48'0 0.0 1027.7 13.1 9.4
2020-Sep-20 19:00S 41°18' E 174°48'214.7 1028.2 12.7 9.2
2020-Sep-20 18:51S 41°16' E 174°47'2 2.5
2020-Sep-20 18:00S 41°18' E 174°48'2 7.2 1027.9 12.3 9.3
2020-Sep-20 17:42S 41°16' E 174°47'0 0.0
2020-Sep-20 17:30S 41°16' E 174°47'0 0.0
2020-Sep-20 17:00S 41°16' E 174°47'2451.0
2020-Sep-20 17:00S 41°18' E 174°48'2 4.3 1027.9 12.1 8.9
2020-Sep-20 16:30S 41°16' E 174°47'0 0.0
2020-Sep-20 16:00S 41°16' E 174°47'2451.0
2020-Sep-20 16:00S 41°18' E 174°48'0 0.0 1027.8 12.0 8.7
2020-Sep-20 15:00S 41°18' E 174°48'2 4.3 1028.0 11.9 8.6
2020-Sep-20 14:30S 41°16' E 174°47'2 4.2
2020-Sep-20 14:00S 41°18' E 174°48'0 0.0 1028.3 11.6 8.0
2020-Sep-20 13:00S 41°18' E 174°48'2 4.3 1028.5 11.1 7.8
2020-Sep-20 12:30S 41°16' E 174°47'0 0.0
2020-Sep-20 12:00S 41°16' E 174°47'2511.1
2020-Sep-20 12:00S 41°18' E 174°48'2 4.3 1028.6 10.1 6.8
2020-Sep-20 11:30S 41°16' E 174°47'2 4.2
2020-Sep-20 11:00S 41°18' E 174°48'2 3.6 1028.6 10.1 6.6
2020-Sep-20 10:24S 41°16' E 174°47'2 5.3
2020-Sep-20 10:00S 41°18' E 174°48'0 0.0 1028.5 10.5 7.1
2020-Sep-20 09:00S 41°18' E 174°48'2 3.6 1028.3 11.2 6.0
2020-Sep-20 08:24S 41°16' E 174°47'2 5.3
2020-Sep-20 08:00S 41°18' E 174°48'0 0.0 1027.8 12.3 4.4
2020-Sep-20 07:00S 41°18' E 174°48'0 0.0 1027.3 12.8 3.8
2020-Sep-20 06:00S 41°18' E 174°48'214.5 1026.9 13.3 3.2
2020-Sep-20 05:51S 41°16' E 174°47'2 2.5
2020-Sep-20 05:00S 41°18' E 174°48'0 0.0 1026.8 14.5 2.7
2020-Sep-20 04:00S 41°18' E 174°48'1312.8 360 / 181026.7 13.8 4.9
2020-Sep-20 03:00S 41°30' E 174°54'4 4.5 1026.6 14.5 6.0
2020-Sep-20 02:00S 41°30' E 175°00'7 7.5 030 / 111027.1 14.5 7.0
2020-Sep-20 01:00S 41°36' E 175°06'1212.1 080 / 101027.9 14.0 6.3
2020-Sep-20 00:00S 41°39' E 175°21'3237.5
2020-Sep-20 00:00S 41°42' E 175°24'1110.8 090 / 61028.9 13.1 6.1
2020-Sep-19 23:00S 41°36' E 175°36'1110.8 1029.7 12.3 5.6
2020-Sep-19 22:00S 41°30' E 175°48'9 9.0 1029.9 11.7 5.9
2020-Sep-19 21:00S 41°30' E 176°00'1110.8 280 / 71029.9 11.2 6.4
2020-Sep-19 20:00S 41°24' E 176°12'9 9.0 200 / 91029.6 11.1 6.2
2020-Sep-19 19:00S 41°24' E 176°24'1110.8 190 / 81028.9 11.1 5.0
2020-Sep-19 18:00S 41°18' E 176°36'9 9.0 210 / 121028.2 11.0 5.7
2020-Sep-19 17:00S 41°18' E 176°48'1110.8 220 / 151028.0 11.0 4.7
2020-Sep-19 16:00S 41°12' E 177°00'9 9.0 210 / 141027.5 11.0 5.2
2020-Sep-19 15:00S 41°12' E 177°12'1110.8 190 / 131027.3 10.9 5.4
2020-Sep-19 14:00S 41°06' E 177°24'1110.9 200 / 171027.2 11.1 5.7
2020-Sep-19 13:00S 41°00' E 177°36'9 9.1 210 / 181026.9 11.2 6.0
2020-Sep-19 12:00S 41°00' E 177°48'1110.9 200 / 191026.4 11.3 5.4
2020-Sep-19 11:00S 40°54' E 178°00'9 9.1 210 / 201026.0 11.5 6.1
2020-Sep-19 10:00S 40°54' E 178°12'1110.9 210 / 211025.4 11.6 5.8
2020-Sep-19 09:00S 40°48' E 178°24'9 9.1 210 / 201024.7 11.8 6.3
2020-Sep-19 08:00S 40°48' E 178°36'1110.9 200 / 221023.9 11.9 6.5
2020-Sep-19 07:00S 40°42' E 178°48'5 4.5 1023.4 12.1 5.7
2020-Sep-19 06:00S 40°42' E 178°54'8 7.5 1022.2 12.3 6.5
2020-Sep-19 05:00S 40°36' E 179°00'5 4.6 1021.3 12.5 6.1
2020-Sep-19 04:00S 40°36' E 179°06'0 0.0 1021.1 12.8 6.7
2020-Sep-19 03:00S 40°36' E 179°06'0 0.0 1020.7 12.9 6.4
2020-Sep-19 02:00S 40°36' E 179°06'0 0.0 1020.5 13.2 6.4
2020-Sep-19 01:00S 40°36' E 179°06'0 0.0 1020.2 13.3 4.6
2020-Sep-19 00:00S 40°36' E 179°06'6 6.0 1020.3 13.8 5.9
2020-Sep-18 23:00S 40°30' E 179°06'6 6.0 200 / 151019.8 14.1 7.4
2020-Sep-18 22:00S 40°36' E 179°06'0 0.0 1019.2 13.7 8.4
2020-Sep-18 21:00S 40°36' E 179°06'0 0.0 1018.5 13.3 7.4
2020-Sep-18 20:00S 40°36' E 179°06'0 0.0 1018.0 13.1 7.8
2020-Sep-18 19:00S 40°36' E 179°06'0 0.0 1017.2 13.1 8.1
2020-Sep-18 18:00S 40°36' E 179°06'5 4.6 1016.1 12.5 8.3
2020-Sep-18 17:00S 40°36' E 179°12'8 7.5 1015.7 12.3 7.9
2020-Sep-18 16:00S 40°30' E 179°18'6 6.0 270 / 211014.7 12.1 6.9
2020-Sep-18 15:00S 40°24' E 179°18'8 7.5 270 / 181014.6 11.8 7.0
2020-Sep-18 14:00S 40°30' E 179°12'8 7.5 270 / 17 gusting 321014.9 11.5 6.7
2020-Sep-18 13:00S 40°24' E 179°06'9 9.1 260 / 221015.1 11.2 5.2
2020-Sep-18 12:00S 40°24' E 179°18'1212.0 250 / 241014.6 10.7 4.9
2020-Sep-18 11:00S 40°36' E 179°18'5 4.6 230 / 241014.4 10.9 5.0
2020-Sep-18 10:00S 40°36' E 179°12'6 6.0 240 / 281013.5 10.7 4.3
2020-Sep-18 09:00S 40°30' E 179°12'0 0.0 1013.1 10.6 3.8
2020-Sep-18 08:00S 40°30' E 179°12'6 6.0 1013.1 10.6 3.9
2020-Sep-18 07:00S 40°36' E 179°12'8 7.5 1012.1 10.3 3.5
2020-Sep-18 06:00S 40°42' E 179°06'5 4.5 1011.3 9.8 5.0
2020-Sep-18 05:00S 40°42' E 179°00'6 6.0 1010.8 9.5 6.1
2020-Sep-18 04:00S 40°48' E 179°00'0 0.0 1009.5 9.4 6.7
2020-Sep-18 03:00S 40°48' E 179°00'8 7.5 1008.6 9.3 7.2
2020-Sep-18 02:00S 40°42' E 179°06'0 0.0 1008.3 9.7 7.5
2020-Sep-18 01:00S 40°42' E 179°06'6 6.0 1007.7 12.010.0
2020-Sep-18 00:00S 40°36' E 179°06'0 0.0 1007.6 14.310.4
2020-Sep-17 23:00S 40°36' E 179°06'0 0.0 1007.5 15.2 9.3
2020-Sep-17 22:00S 40°36' E 179°06'6 6.0 1008.2 15.1 9.3
2020-Sep-17 21:00S 40°30' E 179°06'1212.0 320 / 321009.3 15.0 9.2
2020-Sep-17 20:00S 40°18' E 179°06'8 7.5 320 / 281010.4 14.9 9.5
2020-Sep-17 19:00S 40°12' E 179°00'1212.0 310 / 321010.7 15.1 8.9
2020-Sep-17 18:00S 40°00' E 179°00'1212.0 310 / 301011.6 15.0 9.1
2020-Sep-17 17:00S 39°48' E 179°00'1212.0 300 / 291013.0 15.2 8.7
2020-Sep-17 16:00S 39°36' E 179°00'6 6.0 310 / 271013.7 15.1 8.7
2020-Sep-17 15:00S 39°30' E 179°00'1212.0 300 / 291014.3 14.9 8.9
2020-Sep-17 14:00S 39°18' E 179°00'1312.9 310 / 241016.0 14.8 8.8
2020-Sep-17 13:00S 39°06' E 178°54'1212.0 300 / 261017.2 14.9 8.5
2020-Sep-17 12:00S 38°54' E 178°54'1212.0 300 / 211018.1 15.3 8.7
2020-Sep-17 11:00S 38°42' E 178°54'6 6.0 300 / 171019.1 15.4 9.1
2020-Sep-17 10:00S 38°36' E 178°54'1312.9 310 / 161019.5 15.511.1
2020-Sep-17 09:00S 38°24' E 178°48'1212.0 310 / 191019.9 16.1 9.4
2020-Sep-17 08:00S 38°12' E 178°48'1212.0 350 / 161020.4 15.410.2
2020-Sep-17 07:00S 38°00' E 178°48'1212.0 320 / 221020.3 15.610.4
2020-Sep-17 06:00S 37°48' E 178°48'6 6.0 310 / 251020.7 15.011.7
2020-Sep-17 05:00S 37°42' E 178°48'1212.0 300 / 281021.6 14.911.0
2020-Sep-17 04:00S 37°30' E 178°48'1312.9 280 / 271022.2 15.611.0
2020-Sep-17 03:00S 37°18' E 178°42'6 6.0 290 / 351022.1 15.610.2
2020-Sep-17 02:00S 37°12' E 178°42'1212.0 280 / 291023.7 15.6 9.4
2020-Sep-17 01:00S 37°00' E 178°42'6 6.0 270 / 281025.0 15.2 8.4
2020-Sep-17 00:00S 36°54' E 178°42'1212.0 260 / 301026.0 15.2 9.5
2020-Sep-16 23:00S 36°42' E 178°42'19 9.3 260 / 291026.8 15.0 9.5
2020-Sep-16 21:00S 36°24' E 178°36'1212.0 270 / 231027.5 14.9 9.2
2020-Sep-16 20:00S 36°12' E 178°36'6 6.0 270 / 221027.8 14.4 8.5
2020-Sep-16 19:00S 36°06' E 178°36'0 0.0 1027.7 14.1 8.1
2020-Sep-16 18:00S 36°06' E 178°36'5 4.8 1027.3 13.9 8.8
2020-Sep-16 17:00S 36°06' E 178°30'1111.4 250 / 171027.2 13.8 8.5
2020-Sep-16 16:00S 36°00' E 178°18'6 6.0 250 / 191027.1 13.8 8.3
2020-Sep-16 15:00S 35°54' E 178°18'6 6.0 1027.0 14.0 8.6
2020-Sep-16 14:00S 35°48' E 178°18'6 6.0 1027.4 14.4 8.7
2020-Sep-16 13:00S 35°42' E 178°18'6 6.0 240 / 251027.0 14.6 8.3
2020-Sep-16 12:00S 35°36' E 178°18'0 0.0 1027.1 14.9 9.5
2020-Sep-16 11:00S 35°36' E 178°18'6 6.0 240 / 251026.7 15.2 9.5
2020-Sep-16 10:00S 35°42' E 178°18'6 6.0 240 / 221026.8 15.4 8.3
2020-Sep-16 09:00S 35°48' E 178°18'6 6.0 1026.4 15.5 9.3
2020-Sep-16 08:00S 35°54' E 178°18'6 6.0 1025.6 15.710.0
2020-Sep-16 07:00S 36°00' E 178°18'5 4.9 1024.9 15.810.6
2020-Sep-16 06:00S 36°00' E 178°24'10 9.7 1024.3 15.610.3
2020-Sep-16 05:00S 36°00' E 178°36'0 0.0 1023.0 15.9 9.9
2020-Sep-16 04:00S 36°00' E 178°36'6 6.0 1022.8 15.710.6
2020-Sep-16 03:00S 36°06' E 178°36'6 6.0 1023.1 15.7 9.1
2020-Sep-16 02:00S 36°12' E 178°36'8 7.7 1022.7 15.7 8.1
2020-Sep-16 01:00S 36°18' E 178°42'6 6.0 1022.4 15.9 8.8
2020-Sep-16 00:00S 36°12' E 178°42'0 0.0 1022.5 16.2 7.4
2020-Sep-15 23:00S 36°12' E 178°42'6 6.0 1021.7 16.3 7.7
2020-Sep-15 22:00S 36°06' E 178°42'5 4.8 1021.5 16.2 9.7
2020-Sep-15 21:00S 36°06' E 178°36'6 6.0 1022.1 15.811.0
2020-Sep-15 20:00S 36°00' E 178°36'0 0.0 1020.6 15.910.7
2020-Sep-15 19:00S 36°00' E 178°36'6 6.0 1018.8 15.410.3
2020-Sep-15 18:00S 35°54' E 178°36'6 6.0 1018.0 15.110.2
2020-Sep-15 17:00S 36°00' E 178°36'8 7.7 1017.7 15.310.3
2020-Sep-15 16:00S 36°06' E 178°42'0 0.0 1017.6 15.2 9.8
2020-Sep-15 15:00S 36°06' E 178°42'6 6.0 1017.2 15.310.0
2020-Sep-15 14:00S 36°12' E 178°42'8 7.7 1017.2 15.310.1
2020-Sep-15 13:00S 36°18' E 178°36'6 6.0 1017.6 15.2 9.5
2020-Sep-15 12:00S 36°24' E 178°36'6 6.0 1017.1 15.410.7
2020-Sep-15 11:00S 36°18' E 178°36'6 6.0 1017.4 15.611.2
2020-Sep-15 10:00S 36°12' E 178°36'6 6.0 1018.0 15.711.7
2020-Sep-15 09:00S 36°06' E 178°36'5 4.8 1017.9 15.811.5
2020-Sep-15 08:00S 36°06' E 178°42'5 4.8 280 / 301017.7 15.513.1
2020-Sep-15 07:00S 36°06' E 178°48'1111.4 290 / 341017.2 15.813.2
2020-Sep-15 06:00S 36°00' E 179°00'5 4.9 290 / 321016.7 15.612.8
2020-Sep-15 05:00S 36°00' E 179°06'8 7.7 290 / 351016.5 15.812.6
2020-Sep-15 04:00S 35°54' E 179°12'8 7.7 290 / 351016.4 15.912.2
2020-Sep-15 03:00S 35°48' E 179°18'1111.4 280 / 331017.2 15.912.2
2020-Sep-15 02:00S 35°42' E 179°30'1313.0 280 / 331017.8 16.111.9
2020-Sep-15 01:00S 35°30' E 179°36'8 7.7 280 / 281018.7 16.212.1
2020-Sep-15 00:00S 35°24' E 179°42'8 7.7 280 / 261019.6 15.911.9
2020-Sep-14 23:00S 35°18' E 179°48'8 7.7 1020.2 15.610.9
2020-Sep-14 22:00S 35°12' E 179°54'2110.3 280 / 271020.6 15.610.3
2020-Sep-14 20:00S 34°54' W 179°54'8 7.8 270 / 281021.1 15.5 6.7
2020-Sep-14 19:00S 34°48' W 179°48'1212.0 260 / 281021.2 15.2 7.3
2020-Sep-14 18:00S 34°36' W 179°48'8 7.8 260 / 291020.9 15.0 6.8
2020-Sep-14 17:00S 34°30' W 179°42'8 7.8 270 / 201021.3 14.9 8.7
2020-Sep-14 16:00S 34°24' W 179°36'1313.0 280 / 241021.1 14.9 8.1
2020-Sep-14 15:00S 34°12' W 179°30'8 7.8 270 / 211021.7 14.6 7.7
2020-Sep-14 14:00S 34°06' W 179°24'8 7.8 270 / 241022.2 14.9 8.3
2020-Sep-14 13:00S 34°00' W 179°18'1211.6 260 / 241022.9 14.9 7.5
2020-Sep-14 12:00S 33°54' W 179°06'8 7.8 270 / 181023.5 14.4 9.6
2020-Sep-14 11:00S 33°48' W 179°00'1313.0 250 / 181023.9 14.8 7.5
2020-Sep-14 10:00S 33°36' W 178°54'8 7.8 250 / 201024.3 14.9 6.7
2020-Sep-14 09:00S 33°30' W 178°48'1211.7 240 / 161024.3 15.0 6.1
2020-Sep-14 08:00S 33°24' W 178°36'8 7.8 240 / 151024.2 15.1 6.9
2020-Sep-14 07:00S 33°18' W 178°30'1313.0 260 / 171024.2 15.1 6.8
2020-Sep-14 06:00S 33°06' W 178°24'8 7.8 250 / 191023.9 15.0 7.4
2020-Sep-14 05:00S 33°00' W 178°18'1211.7 240 / 161023.5 15.1 9.4
2020-Sep-14 04:00S 32°54' W 178°06'1313.0 240 / 131023.7 15.2 8.7
2020-Sep-14 03:00S 32°42' W 178°00'8 7.8 270 / 141024.0 15.4 8.3
2020-Sep-14 02:00S 32°36' W 177°54'1211.8 1024.3 15.3 7.7
2020-Sep-14 01:00S 32°30' W 177°42'1313.0 260 / 121024.9 15.5 7.5
2020-Sep-14 00:00S 32°18' W 177°36'8 7.9 270 / 111025.8 15.3 8.1
2020-Sep-13 23:00S 32°12' W 177°30'1211.8 250 / 101026.6 15.7 6.0
2020-Sep-13 22:00S 32°06' W 177°18'1313.0 1027.4 15.2 6.2
2020-Sep-13 21:00S 31°54' W 177°12'8 7.9 1027.7 14.6 4.9
2020-Sep-13 20:00S 31°48' W 177°06'8 7.9 160 / 71027.7 14.1 5.7
2020-Sep-13 19:00S 31°42' W 177°00'1211.8 150 / 101026.7 13.9 6.0
2020-Sep-13 18:00S 31°36' W 176°48'1313.0 160 / 141026.3 13.8 5.1
2020-Sep-13 17:00S 31°24' W 176°42'8 7.9 160 / 161025.7 13.9 5.3
2020-Sep-13 16:00S 31°18' W 176°36'8 7.9 180 / 151025.4 14.3 6.6
2020-Sep-13 15:00S 31°12' W 176°30'1615.8 160 / 171025.5 14.3 6.2
2020-Sep-13 14:00S 31°00' W 176°18'8 7.9 150 / 181025.6 14.3 5.3
2020-Sep-13 13:00S 30°54' W 176°12'8 7.9 1025.6 14.6 5.8
2020-Sep-13 12:00S 30°48' W 176°06'8 7.9 170 / 151025.9 14.7 6.6
2020-Sep-13 11:00S 30°42' W 176°00'8 7.9 150 / 201026.0 14.3 8.5
2020-Sep-13 10:00S 30°36' W 175°54'1615.8 160 / 201025.9 14.9 6.6
2020-Sep-13 09:00S 30°24' W 175°42'8 7.9 150 / 231026.1 15.2 7.3
2020-Sep-13 08:00S 30°18' W 175°36'8 7.9 150 / 261024.7 15.2 6.1
2020-Sep-13 07:00S 30°12' W 175°30'8 7.9 160 / 271023.8 15.2 4.8
2020-Sep-13 06:00S 30°06' W 175°24'8 7.9 160 / 301022.7 15.1 7.9
2020-Sep-13 05:00S 30°00' W 175°18'8 7.9 170 / 271022.0 15.1 8.5
2020-Sep-13 04:00S 29°54' W 175°12'8 7.9 160 / 281021.6 15.1 8.7
2020-Sep-13 03:00S 29°48' W 175°06'8 7.9 190 / 261021.9 14.9 8.6
2020-Sep-13 02:00S 29°42' W 175°00'8 7.9 1021.6 15.7 9.1
2020-Sep-13 01:00S 29°36' W 174°54'8 8.0 180 / 311021.2 15.7 9.1
2020-Sep-13 00:00S 29°30' W 174°48'8 8.0 190 / 331021.2 15.7 8.3
2020-Sep-12 23:00S 29°24' W 174°42'8 8.0 190 / 311021.3 16.2 7.5
2020-Sep-12 22:00S 29°18' W 174°48'6 6.0 180 / 301021.1 16.0 8.2
2020-Sep-12 21:00S 29°12' W 174°48'6 6.0 190 / 321020.5 16.3 8.1
2020-Sep-12 20:00S 29°06' W 174°48'6 6.0 190 / 291020.3 15.7 8.2
2020-Sep-12 19:00S 29°00' W 174°48'6 6.0 200 / 281019.9 15.4 7.3
2020-Sep-12 18:00S 28°54' W 174°48'6 6.0 1018.9 15.3 6.9
2020-Sep-12 17:00S 28°48' W 174°48'6 6.0 1018.1 15.3 6.2
2020-Sep-12 16:00S 28°42' W 174°48'8 8.0 1017.5 15.5 7.2
2020-Sep-12 15:00S 28°36' W 174°42'6 6.0 1016.7 16.0 8.5
2020-Sep-12 14:00S 28°30' W 174°42'6 6.0 1016.7 16.0 9.0
2020-Sep-12 13:00S 28°24' W 174°42'6 6.0 1017.2 16.011.5
2020-Sep-12 12:00S 28°18' W 174°42'8 8.0 210 / 281017.2 16.610.7
2020-Sep-12 11:00S 28°12' W 174°36'1212.0 220 / 311017.1 16.9 9.5
2020-Sep-12 10:00S 28°00' W 174°36'8 8.0 210 / 311017.3 17.3 9.2
2020-Sep-12 09:00S 27°54' W 174°30'1212.0 210 / 301017.3 17.210.1
2020-Sep-12 08:00S 27°42' W 174°30'6 6.0 220 / 261017.2 17.5 8.8
2020-Sep-12 07:00S 27°36' W 174°30'1313.1 220 / 291016.3 18.0 9.2
2020-Sep-12 06:00S 27°24' W 174°24'1212.0 220 / 271015.7 18.2 9.4
2020-Sep-12 05:00S 27°12' W 174°24'8 8.0 220 / 251014.8 18.412.6
2020-Sep-12 04:00S 27°06' W 174°18'1212.0 230 / 321014.4 17.414.9
2020-Sep-12 03:00S 26°54' W 174°18'1313.1 240 / 191014.5 19.511.1
2020-Sep-12 02:00S 26°42' W 174°12'6 6.0 230 / 191014.6 19.911.5
2020-Sep-12 01:00S 26°36' W 174°12'1212.0 220 / 141015.3 19.811.1
2020-Sep-12 00:00S 26°24' W 174°12'1313.2 200 / 131015.8 19.711.5
2020-Sep-11 23:00S 26°12' W 174°06'6 6.0 230 / 211016.2 20.010.4
2020-Sep-11 22:00S 26°06' W 174°06'1313.2 210 / 171016.9 20.012.7
2020-Sep-11 21:00S 25°54' W 174°00'1212.0 210 / 181016.9 20.110.1
2020-Sep-11 20:00S 25°42' W 174°00'6 6.0 210 / 181016.4 20.313.3
2020-Sep-11 19:00S 25°36' W 174°00'1313.2 200 / 181015.6 19.714.3
2020-Sep-11 18:00S 25°24' W 173°54'1212.0 200 / 211015.0 19.316.1
2020-Sep-11 17:00S 25°12' W 173°54'1313.2 190 / 191014.4 20.115.6
2020-Sep-11 16:00S 25°00' W 173°48'1212.0 190 / 201013.7 20.416.7
2020-Sep-11 15:00S 24°48' W 173°48'8 8.1 180 / 191013.2 20.317.6
2020-Sep-11 14:00S 24°42' W 173°42'1212.0 170 / 201013.2 19.618.3
2020-Sep-11 13:00S 24°30' W 173°42'1313.2 300 / 61013.4 21.318.6
2020-Sep-11 12:00S 24°18' W 173°36'1212.0 1013.9 21.218.3
2020-Sep-11 11:00S 24°06' W 173°36'1313.2 1014.5 21.018.9
2020-Sep-11 10:00S 23°54' W 173°30'1212.0 1014.2 21.218.4
2020-Sep-11 09:00S 23°42' W 173°30'1212.0 1014.3 21.018.4
2020-Sep-11 08:00S 23°30' W 173°30'8 8.1 230 / 71014.1 22.018.2
2020-Sep-11 07:00S 23°24' W 173°24'6 6.0 1013.2 21.918.3
2020-Sep-11 06:00S 23°18' W 173°24'0 0.0 1012.5 21.818.8
2020-Sep-11 05:00S 23°18' W 173°24'0 0.0 1012.0 22.618.6
2020-Sep-11 04:00S 23°18' W 173°24'6 5.5 1011.7 23.218.5
2020-Sep-11 03:00S 23°18' W 173°30'6 5.5 1011.2 24.118.7
2020-Sep-11 02:00S 23°18' W 173°24'6 5.5 280 / 71010.8 22.518.7
2020-Sep-11 01:00S 23°18' W 173°18'6 5.5 1010.8 23.718.5
2020-Sep-11 00:00S 23°18' W 173°24'0 0.0 1011.1 23.518.6
2020-Sep-10 23:00S 23°18' W 173°24'0 0.0 1011.3 23.418.4
2020-Sep-10 22:00S 23°18' W 173°24'6 6.0 1011.6 23.018.6
2020-Sep-10 21:00S 23°24' W 173°24'6 6.0 1011.4 22.018.5
2020-Sep-10 20:00S 23°18' W 173°24'   1010.8 21.319.2

Dump ship's entire track history